createdAt,value
2023-04-16T00:00:35.665Z,9.41
2023-04-16T00:01:35.689Z,9.39
2023-04-16T00:02:35.857Z,9.39
2023-04-16T00:03:35.963Z,9.38
2023-04-16T00:04:35.874Z,9.34
2023-04-16T00:05:35.797Z,9.39
2023-04-16T00:06:35.819Z,9.34
2023-04-16T00:07:35.844Z,9.42
2023-04-16T00:08:35.907Z,9.42
2023-04-16T00:09:35.894Z,9.39
2023-04-16T00:10:35.920Z,9.30
2023-04-16T00:11:35.963Z,9.41
2023-04-16T00:12:35.971Z,9.32
2023-04-16T00:13:36.000Z,9.41
2023-04-16T00:14:36.024Z,9.42
2023-04-16T00:15:36.060Z,9.34
2023-04-16T00:16:36.115Z,9.48
2023-04-16T00:17:36.164Z,9.44
2023-04-16T00:18:36.129Z,9.34
2023-04-16T00:19:36.149Z,9.41
2023-04-16T00:20:36.184Z,9.41
2023-04-16T00:21:36.199Z,9.41
2023-04-16T00:22:36.232Z,9.32
2023-04-16T00:23:36.270Z,9.42
2023-04-16T00:24:36.277Z,9.37
2023-04-16T00:25:36.305Z,9.34
2023-04-16T00:26:36.330Z,9.32
2023-04-16T00:27:36.391Z,9.42
2023-04-16T00:28:36.383Z,9.38
2023-04-16T00:29:36.411Z,9.37
2023-04-16T00:30:36.450Z,9.45
2023-04-16T00:31:36.456Z,9.42
2023-04-16T00:32:36.511Z,9.42
2023-04-16T00:33:36.507Z,9.34
2023-04-16T00:34:36.534Z,9.42
2023-04-16T00:35:36.561Z,9.42
2023-04-16T00:36:36.590Z,9.34
2023-04-16T00:37:36.621Z,9.34
2023-04-16T00:38:36.637Z,9.35
2023-04-16T00:39:36.660Z,9.35
2023-04-16T00:40:36.683Z,9.32
2023-04-16T00:41:36.710Z,9.34
2023-04-16T00:42:36.741Z,9.38
2023-04-16T00:43:36.789Z,9.37
2023-04-16T00:44:36.791Z,9.34
2023-04-16T00:45:36.813Z,9.38
2023-04-16T00:46:36.874Z,9.35
2023-04-16T00:47:36.933Z,9.38
2023-04-16T00:48:36.894Z,9.32
2023-04-16T00:49:36.925Z,9.35
2023-04-16T00:50:36.941Z,9.30
2023-04-16T00:51:36.967Z,9.23
2023-04-16T00:52:36.990Z,9.30
2023-04-16T00:53:37.020Z,9.30
2023-04-16T00:54:37.045Z,9.24
2023-04-16T00:55:37.066Z,9.34
2023-04-16T00:56:37.092Z,9.35
2023-04-16T00:57:37.117Z,9.26
2023-04-16T00:58:37.147Z,9.35
2023-04-16T00:59:37.192Z,9.35
2023-04-16T01:00:37.211Z,9.27
2023-04-16T01:01:37.287Z,9.29
2023-04-16T01:02:37.410Z,9.32
2023-04-16T01:03:37.537Z,9.26
2023-04-16T01:04:37.393Z,9.27
2023-04-16T01:05:37.327Z,9.27
2023-04-16T01:06:37.355Z,9.24
2023-04-16T01:07:37.393Z,9.27
2023-04-16T01:08:37.411Z,9.24
2023-04-16T01:09:37.435Z,9.21
2023-04-16T01:10:37.454Z,9.26
2023-04-16T01:11:37.488Z,9.20
2023-04-16T01:12:37.509Z,9.17
2023-04-16T01:13:37.530Z,9.16
2023-04-16T01:14:37.562Z,9.16
2023-04-16T01:15:37.686Z,9.11
2023-04-16T01:16:37.615Z,9.14
2023-04-16T01:17:37.667Z,9.19
2023-04-16T01:18:37.702Z,9.11
2023-04-16T01:19:37.686Z,9.11
2023-04-16T01:20:37.712Z,9.14
2023-04-16T01:21:37.735Z,9.16
2023-04-16T01:22:37.770Z,9.17
2023-04-16T01:23:37.799Z,9.20
2023-04-16T01:24:37.823Z,9.23
2023-04-16T01:25:37.835Z,9.30
2023-04-16T01:26:37.865Z,9.23
2023-04-16T01:27:37.889Z,9.24
2023-04-16T01:28:37.918Z,9.27
2023-04-16T01:29:37.940Z,9.26
2023-04-16T01:30:37.975Z,9.27
2023-04-16T01:31:38.087Z,9.21
2023-04-16T01:32:38.062Z,9.26
2023-04-16T01:33:38.042Z,9.30
2023-04-16T01:34:38.071Z,9.26
2023-04-16T01:35:38.094Z,9.21
2023-04-16T01:36:38.123Z,9.21
2023-04-16T01:37:38.145Z,9.32
2023-04-16T01:38:38.172Z,9.34
2023-04-16T01:39:38.197Z,9.23
2023-04-16T01:40:38.230Z,9.38
2023-04-16T01:41:38.246Z,9.32
2023-04-16T01:42:38.276Z,9.29
2023-04-16T01:43:39.675Z,9.30
2023-04-16T01:44:38.349Z,9.26
2023-04-16T01:45:38.356Z,9.37
2023-04-16T01:46:38.424Z,9.19
2023-04-16T01:47:38.440Z,9.24
2023-04-16T01:48:38.437Z,9.26
2023-04-16T01:49:38.461Z,9.26
2023-04-16T01:50:38.507Z,9.20
2023-04-16T01:51:38.522Z,9.26
2023-04-16T01:52:38.531Z,9.24
2023-04-16T01:53:38.555Z,9.30
2023-04-16T01:54:38.593Z,9.29
2023-04-16T01:55:38.607Z,9.32
2023-04-16T01:56:38.634Z,9.30
2023-04-16T01:57:38.658Z,9.23
2023-04-16T01:58:38.696Z,9.32
2023-04-16T01:59:38.708Z,9.34
2023-04-16T02:00:38.792Z,9.37
2023-04-16T02:01:38.768Z,9.32
2023-04-16T02:02:38.944Z,9.32
2023-04-16T02:03:38.951Z,9.30
2023-04-16T02:04:38.838Z,9.30
2023-04-16T02:05:38.865Z,9.24
2023-04-16T02:06:38.889Z,9.27
2023-04-16T02:07:38.915Z,9.34
2023-04-16T02:08:38.941Z,9.35
2023-04-16T02:09:38.968Z,9.39
2023-04-16T02:10:38.993Z,9.32
2023-04-16T02:11:39.022Z,9.29
2023-04-16T02:12:39.042Z,9.32
2023-04-16T02:13:39.065Z,9.24
2023-04-16T02:14:39.109Z,9.35
2023-04-16T02:15:39.120Z,9.23
2023-04-16T02:16:39.202Z,9.30
2023-04-16T02:17:39.189Z,9.32
2023-04-16T02:18:39.192Z,9.34
2023-04-16T02:19:39.236Z,9.34
2023-04-16T02:20:39.246Z,9.20
2023-04-16T02:21:39.268Z,9.23
2023-04-16T02:22:39.296Z,9.24
2023-04-16T02:23:39.323Z,9.24
2023-04-16T02:24:39.354Z,9.27
2023-04-16T02:25:39.372Z,9.26
2023-04-16T02:26:39.398Z,9.21
2023-04-16T02:27:39.472Z,9.26
2023-04-16T02:28:39.449Z,9.27
2023-04-16T02:29:39.475Z,9.35
2023-04-16T02:30:39.502Z,9.32
2023-04-16T02:31:39.568Z,9.30
2023-04-16T02:32:39.616Z,9.34
2023-04-16T02:33:39.581Z,9.23
2023-04-16T02:34:39.600Z,9.27
2023-04-16T02:35:39.651Z,9.21
2023-04-16T02:36:39.652Z,9.27
2023-04-16T02:37:39.680Z,9.30
2023-04-16T02:38:39.711Z,9.21
2023-04-16T02:39:39.733Z,9.30
2023-04-16T02:40:39.751Z,9.23
2023-04-16T02:41:39.780Z,9.21
2023-04-16T02:42:39.904Z,9.21
2023-04-16T02:43:39.836Z,9.29
2023-04-16T02:44:39.856Z,9.26
2023-04-16T02:45:39.929Z,9.32
2023-04-16T02:46:39.921Z,9.24
2023-04-16T02:47:39.971Z,9.24
2023-04-16T02:48:39.957Z,9.24
2023-04-16T02:49:39.994Z,9.38
2023-04-16T02:50:40.014Z,9.19
2023-04-16T02:51:40.059Z,9.34
2023-04-16T02:52:40.066Z,9.23
2023-04-16T02:53:40.088Z,9.24
2023-04-16T02:54:40.113Z,9.32
2023-04-16T02:55:40.139Z,9.24
2023-04-16T02:56:40.162Z,9.23
2023-04-16T02:57:40.190Z,9.24
2023-04-16T02:58:40.210Z,9.26
2023-04-16T02:59:40.241Z,9.26
2023-04-16T03:00:40.263Z,9.23
2023-04-16T03:01:40.319Z,9.26
2023-04-16T03:02:40.415Z,9.21
2023-04-16T03:03:40.345Z,9.23
2023-04-16T03:04:40.410Z,9.24
2023-04-16T03:05:40.608Z,9.32
2023-04-16T03:06:40.426Z,9.21
2023-04-16T03:07:40.471Z,9.21
2023-04-16T03:08:40.469Z,9.27
2023-04-16T03:09:40.494Z,9.26
2023-04-16T03:10:40.521Z,9.21
2023-04-16T03:11:40.554Z,9.14
2023-04-16T03:12:40.565Z,9.27
2023-04-16T03:13:40.606Z,9.27
2023-04-16T03:14:40.635Z,9.19
2023-04-16T03:15:40.658Z,9.21
2023-04-16T03:16:40.673Z,9.16
2023-04-16T03:17:40.755Z,9.26
2023-04-16T03:18:40.721Z,9.12
2023-04-16T03:19:40.768Z,9.20
2023-04-16T03:20:40.775Z,9.23
2023-04-16T03:21:40.804Z,9.16
2023-04-16T03:22:40.825Z,9.29
2023-04-16T03:23:40.875Z,9.19
2023-04-16T03:24:40.888Z,9.24
2023-04-16T03:25:40.913Z,9.23
2023-04-16T03:26:40.929Z,9.23
2023-04-16T03:27:40.956Z,9.21
2023-04-16T03:28:40.983Z,9.23
2023-04-16T03:29:41.015Z,9.16
2023-04-16T03:30:41.032Z,9.24
2023-04-16T03:31:41.085Z,9.23
2023-04-16T03:32:41.127Z,9.26
2023-04-16T03:33:41.110Z,9.24
2023-04-16T03:34:41.135Z,9.26
2023-04-16T03:35:41.167Z,9.14
2023-04-16T03:36:41.189Z,9.14
2023-04-16T03:37:41.220Z,9.16
2023-04-16T03:38:41.245Z,9.20
2023-04-16T03:39:41.286Z,9.32
2023-04-16T03:40:41.309Z,9.24
2023-04-16T03:41:41.314Z,9.30
2023-04-16T03:42:41.357Z,9.26
2023-04-16T03:43:41.372Z,9.12
2023-04-16T03:44:41.395Z,9.12
2023-04-16T03:45:41.416Z,9.23
2023-04-16T03:46:41.472Z,9.26
2023-04-16T03:47:41.497Z,9.26
2023-04-16T03:48:41.489Z,9.20
2023-04-16T03:49:41.524Z,9.24
2023-04-16T03:50:41.560Z,9.20
2023-04-16T03:51:41.572Z,9.24
2023-04-16T03:52:41.621Z,9.20
2023-04-16T03:53:41.642Z,9.20
2023-04-16T03:54:41.647Z,9.21
2023-04-16T03:55:41.734Z,9.26
2023-04-16T03:56:41.713Z,9.20
2023-04-16T03:57:41.728Z,9.26
2023-04-16T03:58:41.761Z,9.19
2023-04-16T03:59:41.773Z,9.24
2023-04-16T04:00:41.806Z,9.14
2023-04-16T04:01:41.857Z,9.16
2023-04-16T04:02:42.086Z,9.20
2023-04-16T04:03:42.020Z,9.11
2023-04-16T04:04:41.953Z,9.14
2023-04-16T04:05:41.929Z,9.20
2023-04-16T04:06:41.954Z,9.19
2023-04-16T04:07:41.979Z,9.21
2023-04-16T04:08:42.009Z,9.27
2023-04-16T04:09:42.031Z,9.16
2023-04-16T04:10:42.054Z,9.20
2023-04-16T04:11:42.103Z,9.14
2023-04-16T04:12:42.111Z,9.17
2023-04-16T04:13:42.133Z,9.20
2023-04-16T04:14:42.154Z,9.19
2023-04-16T04:15:42.196Z,9.20
2023-04-16T04:16:42.327Z,9.20
2023-04-16T04:17:42.278Z,9.12
2023-04-16T04:18:44.325Z,9.11
2023-04-16T04:19:50.634Z,9.20
2023-04-16T04:20:42.307Z,9.14
2023-04-16T04:21:42.346Z,9.23
2023-04-16T04:22:42.363Z,9.27
2023-04-16T04:23:42.390Z,9.26
2023-04-16T04:24:42.411Z,9.24
2023-04-16T04:25:42.452Z,9.14
2023-04-16T04:26:42.462Z,9.20
2023-04-16T04:27:42.505Z,9.11
2023-04-16T04:28:42.513Z,9.16
2023-04-16T04:29:42.542Z,9.23
2023-04-16T04:30:42.574Z,9.21
2023-04-16T04:31:42.658Z,9.24
2023-04-16T04:32:42.653Z,9.23
2023-04-16T04:33:42.641Z,9.20
2023-04-16T04:34:42.666Z,9.26
2023-04-16T04:35:42.698Z,9.30
2023-04-16T04:36:42.714Z,9.27
2023-04-16T04:37:42.751Z,9.30
2023-04-16T04:38:42.778Z,9.26
2023-04-16T04:39:42.800Z,9.34
2023-04-16T04:40:42.815Z,9.23
2023-04-16T04:41:42.845Z,9.34
2023-04-16T04:42:42.872Z,9.30
2023-04-16T04:43:42.914Z,9.26
2023-04-16T04:44:42.947Z,9.38
2023-04-16T04:45:42.980Z,9.27
2023-04-16T04:46:42.974Z,9.39
2023-04-16T04:47:43.074Z,9.34
2023-04-16T04:48:43.051Z,9.26
2023-04-16T04:49:43.082Z,9.34
2023-04-16T04:50:43.123Z,9.29
2023-04-16T04:51:43.141Z,9.34
2023-04-16T04:52:43.136Z,9.24
2023-04-16T04:53:43.150Z,9.37
2023-04-16T04:54:43.173Z,9.35
2023-04-16T04:55:43.200Z,9.35
2023-04-16T04:56:43.222Z,9.39
2023-04-16T04:57:43.257Z,9.38
2023-04-16T04:58:43.280Z,9.37
2023-04-16T04:59:43.325Z,9.35
2023-04-16T05:00:43.339Z,9.30
2023-04-16T05:01:43.355Z,9.34
2023-04-16T05:02:43.587Z,9.39
2023-04-16T05:03:43.565Z,9.44
2023-04-16T05:04:43.545Z,9.44
2023-04-16T05:05:43.459Z,9.39
2023-04-16T05:06:43.480Z,9.42
2023-04-16T05:07:43.510Z,9.41
2023-04-16T05:08:43.536Z,9.47
2023-04-16T05:09:43.571Z,9.47
2023-04-16T05:10:43.585Z,9.50
2023-04-16T05:11:43.615Z,9.52
2023-04-16T05:12:43.641Z,9.55
2023-04-16T05:13:43.667Z,9.53
2023-04-16T05:14:43.690Z,9.55
2023-04-16T05:15:43.734Z,9.57
2023-04-16T05:16:43.780Z,9.53
2023-04-16T05:17:43.783Z,9.57
2023-04-16T05:18:43.793Z,9.59
2023-04-16T05:19:43.818Z,9.59
2023-04-16T05:20:43.844Z,9.52
2023-04-16T05:21:43.869Z,9.52
2023-04-16T05:22:43.903Z,9.60
2023-04-16T05:23:43.921Z,9.52
2023-04-16T05:24:43.948Z,9.57
2023-04-16T05:25:43.976Z,9.59
2023-04-16T05:26:44.000Z,9.59
2023-04-16T05:27:44.026Z,9.60
2023-04-16T05:28:44.060Z,9.59
2023-04-16T05:29:44.077Z,9.66
2023-04-16T05:30:44.126Z,9.66
2023-04-16T05:31:44.158Z,9.67
2023-04-16T05:32:44.180Z,9.71
2023-04-16T05:33:44.178Z,9.67
2023-04-16T05:34:44.202Z,9.60
2023-04-16T05:35:44.268Z,9.63
2023-04-16T05:36:44.259Z,9.63
2023-04-16T05:37:44.284Z,9.62
2023-04-16T05:38:44.305Z,9.59
2023-04-16T05:39:44.332Z,9.63
2023-04-16T05:40:44.357Z,9.60
2023-04-16T05:41:44.402Z,9.75
2023-04-16T05:42:44.417Z,9.70
2023-04-16T05:43:44.437Z,9.78
2023-04-16T05:44:44.459Z,9.74
2023-04-16T05:45:44.489Z,9.71
2023-04-16T05:46:44.517Z,9.72
2023-04-16T05:47:44.609Z,9.75
2023-04-16T05:48:44.564Z,9.71
2023-04-16T05:49:44.588Z,9.70
2023-04-16T05:50:44.614Z,9.71
2023-04-16T05:51:44.657Z,9.67
2023-04-16T05:52:44.682Z,9.75
2023-04-16T05:53:44.689Z,9.70
2023-04-16T05:54:44.720Z,9.72
2023-04-16T05:55:44.757Z,9.72
2023-04-16T05:56:44.768Z,9.74
2023-04-16T05:57:44.809Z,9.67
2023-04-16T05:58:44.823Z,9.72
2023-04-16T05:59:44.846Z,9.77
2023-04-16T06:00:44.873Z,9.74
2023-04-16T06:01:44.900Z,9.72
2023-04-16T06:02:45.110Z,9.77
2023-04-16T06:03:45.074Z,9.75
2023-04-16T06:04:44.975Z,9.74
2023-04-16T06:05:45.027Z,9.67
2023-04-16T06:06:45.042Z,9.74
2023-04-16T06:07:45.056Z,9.75
2023-04-16T06:08:45.080Z,9.77
2023-04-16T06:09:45.105Z,9.78
2023-04-16T06:10:45.131Z,9.75
2023-04-16T06:11:45.165Z,9.71
2023-04-16T06:12:45.182Z,9.72
2023-04-16T06:13:45.210Z,9.75
2023-04-16T06:14:45.233Z,9.70
2023-04-16T06:15:45.302Z,9.80
2023-04-16T06:16:45.286Z,9.72
2023-04-16T06:17:45.343Z,9.75
2023-04-16T06:18:45.351Z,9.72
2023-04-16T06:19:45.384Z,9.72
2023-04-16T06:20:45.387Z,9.77
2023-04-16T06:21:45.421Z,9.72
2023-04-16T06:22:45.445Z,9.72
2023-04-16T06:23:45.468Z,9.66
2023-04-16T06:24:45.493Z,9.67
2023-04-16T06:25:45.534Z,9.74
2023-04-16T06:26:45.545Z,9.71
2023-04-16T06:27:45.573Z,9.74
2023-04-16T06:28:45.593Z,9.75
2023-04-16T06:29:45.623Z,9.74
2023-04-16T06:30:45.650Z,9.77
2023-04-16T06:31:45.716Z,9.72
2023-04-16T06:32:45.725Z,9.70
2023-04-16T06:33:45.725Z,9.75
2023-04-16T06:34:45.750Z,9.75
2023-04-16T06:35:45.798Z,9.74
2023-04-16T06:36:45.803Z,9.85
2023-04-16T06:37:45.834Z,9.75
2023-04-16T06:38:45.854Z,9.70
2023-04-16T06:39:45.882Z,9.78
2023-04-16T06:40:45.905Z,9.70
2023-04-16T06:41:45.937Z,9.80
2023-04-16T06:42:45.962Z,9.71
2023-04-16T06:43:45.986Z,9.84
2023-04-16T06:44:46.011Z,9.67
2023-04-16T06:45:46.043Z,9.84
2023-04-16T06:46:46.146Z,9.74
2023-04-16T06:47:46.155Z,9.80
2023-04-16T06:48:46.316Z,9.84
2023-04-16T06:49:46.140Z,9.84
2023-04-16T06:50:46.170Z,9.89
2023-04-16T06:51:46.210Z,9.84
2023-04-16T06:52:46.218Z,9.85
2023-04-16T06:53:46.345Z,9.85
2023-04-16T06:54:46.267Z,9.88
2023-04-16T06:55:46.295Z,9.89
2023-04-16T06:56:46.319Z,9.95
2023-04-16T06:57:46.355Z,9.96
2023-04-16T06:58:46.421Z,9.95
2023-04-16T06:59:46.403Z,10.02
2023-04-16T07:00:46.452Z,10.05
2023-04-16T07:01:46.461Z,10.10
2023-04-16T07:02:46.584Z,10.07
2023-04-16T07:03:46.787Z,10.13
2023-04-16T07:04:46.531Z,10.02
2023-04-16T07:05:46.551Z,10.02
2023-04-16T07:06:46.585Z,10.10
2023-04-16T07:07:46.623Z,10.11
2023-04-16T07:08:46.631Z,10.08
2023-04-16T07:09:46.662Z,10.07
2023-04-16T07:10:46.683Z,10.08
2023-04-16T07:11:46.716Z,10.08
2023-04-16T07:12:46.736Z,10.07
2023-04-16T07:13:46.757Z,10.14
2023-04-16T07:14:46.787Z,10.18
2023-04-16T07:15:46.812Z,10.26
2023-04-16T07:16:46.876Z,10.17
2023-04-16T07:17:46.880Z,10.23
2023-04-16T07:18:46.890Z,10.28
2023-04-16T07:19:46.919Z,10.25
2023-04-16T07:20:46.942Z,10.28
2023-04-16T07:21:46.970Z,10.25
2023-04-16T07:22:46.995Z,10.26
2023-04-16T07:23:47.049Z,10.38
2023-04-16T07:24:47.046Z,10.36
2023-04-16T07:25:47.087Z,10.33
2023-04-16T07:26:47.101Z,10.33
2023-04-16T07:27:47.128Z,10.23
2023-04-16T07:28:47.148Z,10.28
2023-04-16T07:29:47.172Z,10.32
2023-04-16T07:30:47.215Z,10.32
2023-04-16T07:31:47.245Z,10.32
2023-04-16T07:32:47.288Z,10.36
2023-04-16T07:33:47.276Z,10.35
2023-04-16T07:34:47.305Z,10.35
2023-04-16T07:35:47.336Z,10.39
2023-04-16T07:36:47.364Z,10.39
2023-04-16T07:37:47.389Z,10.44
2023-04-16T07:38:47.409Z,10.36
2023-04-16T07:39:47.468Z,10.33
2023-04-16T07:40:47.466Z,10.39
2023-04-16T07:41:47.496Z,10.41
2023-04-16T07:42:47.513Z,10.42
2023-04-16T07:43:47.545Z,10.47
2023-04-16T07:44:47.564Z,10.51
2023-04-16T07:45:47.628Z,10.55
2023-04-16T07:46:47.913Z,10.54
2023-04-16T07:47:47.689Z,10.51
2023-04-16T07:48:47.672Z,10.52
2023-04-16T07:49:47.695Z,10.58
2023-04-16T07:50:47.724Z,10.57
2023-04-16T07:51:47.749Z,10.70
2023-04-16T07:52:47.775Z,10.69
2023-04-16T07:53:47.801Z,10.70
2023-04-16T07:54:47.840Z,10.67
2023-04-16T07:55:47.872Z,10.67
2023-04-16T07:56:47.881Z,10.65
2023-04-16T07:57:47.904Z,10.69
2023-04-16T07:58:47.942Z,10.70
2023-04-16T07:59:47.975Z,10.70
2023-04-16T08:00:49.758Z,10.67
2023-04-16T08:01:48.058Z,10.77
2023-04-16T08:02:48.131Z,10.65
2023-04-16T08:03:48.199Z,10.83
2023-04-16T08:04:48.243Z,10.88
2023-04-16T08:05:48.124Z,10.94
2023-04-16T08:06:48.144Z,11.02
2023-04-16T08:07:48.184Z,11.05
2023-04-16T08:08:48.198Z,11.20
2023-04-16T08:09:48.247Z,11.27
2023-04-16T08:10:48.250Z,11.30
2023-04-16T08:11:48.297Z,11.35
2023-04-16T08:12:48.301Z,11.27
2023-04-16T08:13:48.333Z,11.26
2023-04-16T08:14:48.358Z,11.27
2023-04-16T08:15:48.416Z,11.10
2023-04-16T08:16:48.421Z,11.13
2023-04-16T08:17:48.537Z,11.05
2023-04-16T08:18:48.465Z,11.15
2023-04-16T08:19:48.492Z,11.21
2023-04-16T08:20:48.534Z,11.10
2023-04-16T08:21:48.554Z,11.06
2023-04-16T08:22:48.577Z,11.12
2023-04-16T08:23:48.599Z,11.05
2023-04-16T08:24:50.040Z,11.16
2023-04-16T08:25:48.651Z,11.15
2023-04-16T08:26:48.690Z,11.16
2023-04-16T08:27:48.724Z,11.12
2023-04-16T08:28:48.732Z,11.24
2023-04-16T08:29:48.757Z,11.12
2023-04-16T08:30:48.790Z,11.15
2023-04-16T08:31:48.923Z,11.21
2023-04-16T08:32:50.178Z,11.27
2023-04-16T08:33:48.872Z,11.21
2023-04-16T08:34:48.894Z,11.24
2023-04-16T08:35:48.931Z,11.39
2023-04-16T08:36:48.957Z,11.35
2023-04-16T08:37:48.980Z,11.35
2023-04-16T08:38:49.002Z,11.46
2023-04-16T08:39:49.025Z,11.52
2023-04-16T08:40:49.051Z,11.48
2023-04-16T08:41:49.079Z,11.48
2023-04-16T08:42:49.105Z,11.51
2023-04-16T08:43:49.164Z,11.52
2023-04-16T08:44:49.488Z,11.51
2023-04-16T08:45:49.185Z,11.42
2023-04-16T08:46:49.272Z,11.42
2023-04-16T08:47:49.377Z,11.39
2023-04-16T08:48:49.271Z,11.34
2023-04-16T08:49:49.296Z,11.45
2023-04-16T08:50:49.316Z,11.35
2023-04-16T08:51:49.346Z,11.27
2023-04-16T08:52:49.372Z,11.41
2023-04-16T08:53:49.395Z,11.45
2023-04-16T08:54:57.070Z,11.52
2023-04-16T08:55:49.453Z,11.57
2023-04-16T08:56:49.478Z,11.66
2023-04-16T08:58:34.954Z,11.64
2023-04-16T08:59:32.114Z,11.60
2023-04-16T09:00:32.112Z,11.59
2023-04-16T09:01:32.168Z,11.52
2023-04-16T09:02:32.366Z,11.64
2023-04-16T09:03:34.045Z,11.64
2023-04-16T09:04:32.277Z,11.63
2023-04-16T09:05:32.250Z,11.66
2023-04-16T09:06:32.273Z,11.73
2023-04-16T09:07:32.299Z,11.71
2023-04-16T09:08:32.329Z,11.64
2023-04-16T09:09:34.548Z,11.64
2023-04-16T09:10:32.376Z,11.64
2023-04-16T09:11:32.404Z,11.64
2023-04-16T09:12:32.432Z,11.48
2023-04-16T09:13:32.476Z,11.43
2023-04-16T09:14:32.486Z,11.56
2023-04-16T09:15:34.006Z,11.56
2023-04-16T09:16:32.590Z,11.64
2023-04-16T09:17:32.605Z,11.66
2023-04-16T09:18:32.592Z,11.81
2023-04-16T09:19:32.620Z,11.81
2023-04-16T09:20:32.653Z,11.91
2023-04-16T09:21:32.675Z,11.88
2023-04-16T09:22:32.701Z,12.18
2023-04-16T09:23:32.731Z,12.18
2023-04-16T09:24:32.760Z,12.31
2023-04-16T09:25:32.783Z,12.38
2023-04-16T09:26:32.808Z,12.58
2023-04-16T09:27:32.851Z,12.77
2023-04-16T09:28:32.865Z,12.71
2023-04-16T09:29:32.892Z,12.63
2023-04-16T09:30:32.921Z,12.70
2023-04-16T09:31:33.014Z,12.65
2023-04-16T09:32:33.003Z,12.66
2023-04-16T09:33:35.048Z,12.69
2023-04-16T09:34:33.027Z,12.69
2023-04-16T09:35:33.056Z,12.58
2023-04-16T09:36:33.086Z,12.53
2023-04-16T09:37:33.125Z,12.52
2023-04-16T09:38:33.137Z,12.62
2023-04-16T09:39:33.166Z,12.66
2023-04-16T09:40:33.197Z,12.65
2023-04-16T09:41:33.237Z,12.51
2023-04-16T09:42:33.261Z,12.23
2023-04-16T09:43:33.281Z,12.23
2023-04-16T09:44:33.303Z,12.26
2023-04-16T09:45:33.372Z,12.20
2023-04-16T09:46:33.360Z,12.20
2023-04-16T09:47:33.435Z,12.20
2023-04-16T09:48:33.414Z,12.10
2023-04-16T09:49:33.442Z,12.13
2023-04-16T09:50:33.485Z,12.07
2023-04-16T09:51:33.500Z,12.08
2023-04-16T09:52:33.523Z,12.16
2023-04-16T09:53:33.554Z,12.26
2023-04-16T09:54:33.580Z,12.28
2023-04-16T09:55:33.631Z,12.26
2023-04-16T09:56:33.635Z,12.28
2023-04-16T09:57:33.661Z,12.28
2023-04-16T09:58:33.695Z,12.28
2023-04-16T09:59:33.721Z,12.28
2023-04-16T10:00:33.750Z,12.23
2023-04-16T10:01:33.803Z,12.23
2023-04-16T10:02:33.846Z,12.26
2023-04-16T10:03:34.175Z,12.38
2023-04-16T10:04:33.873Z,12.40
2023-04-16T10:05:33.883Z,12.34
2023-04-16T10:06:33.913Z,12.37
2023-04-16T10:07:33.937Z,12.38
2023-04-16T10:08:33.967Z,12.40
2023-04-16T10:09:34.007Z,12.52
2023-04-16T10:10:34.020Z,12.44
2023-04-16T10:11:34.049Z,12.33
2023-04-16T10:12:34.074Z,12.51
2023-04-16T10:13:34.105Z,12.43
2023-04-16T10:14:34.132Z,12.48
2023-04-16T10:15:34.163Z,12.52
2023-04-16T10:16:34.224Z,12.47
2023-04-16T10:17:34.272Z,12.40
2023-04-16T10:18:34.242Z,12.52
2023-04-16T10:19:34.300Z,12.48
2023-04-16T10:20:34.294Z,12.48
2023-04-16T10:21:34.621Z,12.37
2023-04-16T10:22:34.351Z,12.28
2023-04-16T10:23:34.379Z,12.37
2023-04-16T10:24:34.408Z,12.47
2023-04-16T10:25:34.434Z,12.53
2023-04-16T10:26:34.460Z,12.63
2023-04-16T10:27:34.487Z,12.59
2023-04-16T10:28:34.530Z,12.70
2023-04-16T10:29:34.549Z,12.71
2023-04-16T10:30:34.663Z,12.91
2023-04-16T10:31:34.599Z,12.99
2023-04-16T10:32:34.683Z,12.92
2023-04-16T10:33:34.653Z,12.94
2023-04-16T10:34:34.678Z,12.99
2023-04-16T10:35:34.733Z,13.09
2023-04-16T10:36:34.736Z,13.14
2023-04-16T10:37:34.763Z,13.20
2023-04-16T10:38:34.791Z,13.19
2023-04-16T10:39:34.833Z,13.37
2023-04-16T10:40:34.887Z,13.29
2023-04-16T10:41:34.878Z,13.36
2023-04-16T10:42:34.904Z,13.50
2023-04-16T10:43:34.929Z,13.51
2023-04-16T10:44:34.961Z,13.62
2023-04-16T10:45:34.986Z,13.81
2023-04-16T10:46:35.090Z,13.97
2023-04-16T10:47:35.101Z,14.06
2023-04-16T10:48:46.585Z,13.99
2023-04-16T10:49:35.098Z,14.16
2023-04-16T10:50:35.127Z,14.15
2023-04-16T10:51:35.178Z,14.19
2023-04-16T10:52:35.183Z,14.19
2023-04-16T10:53:35.217Z,14.05
2023-04-16T10:54:35.248Z,13.99
2023-04-16T10:55:35.268Z,13.66
2023-04-16T10:56:35.301Z,13.66
2023-04-16T10:57:35.323Z,13.68
2023-04-16T10:58:35.354Z,13.66
2023-04-16T10:59:35.385Z,13.62
2023-04-16T11:00:35.411Z,13.40
2023-04-16T11:01:35.485Z,13.57
2023-04-16T11:02:35.844Z,13.50
2023-04-16T11:03:35.599Z,13.58
2023-04-16T11:04:35.673Z,13.68
2023-04-16T11:05:35.552Z,13.68
2023-04-16T11:06:35.580Z,13.63
2023-04-16T11:07:35.631Z,13.60
2023-04-16T11:08:44.274Z,13.53
2023-04-16T11:09:35.673Z,13.51
2023-04-16T11:10:35.700Z,13.37
2023-04-16T11:11:35.722Z,13.45
2023-04-16T11:12:35.802Z,13.36
2023-04-16T11:13:35.784Z,13.42
2023-04-16T11:14:35.806Z,13.31
2023-04-16T11:15:35.846Z,13.31
2023-04-16T11:16:35.863Z,13.37
2023-04-16T11:17:35.896Z,13.37
2023-04-16T11:18:35.923Z,13.37
2023-04-16T11:19:35.950Z,13.31
2023-04-16T11:20:35.975Z,13.44
2023-04-16T11:21:36.010Z,13.40
2023-04-16T11:22:36.032Z,13.47
2023-04-16T11:23:36.096Z,13.47
2023-04-16T11:24:36.109Z,13.47
2023-04-16T11:25:36.115Z,13.51
2023-04-16T11:26:36.144Z,13.50
2023-04-16T11:27:36.180Z,13.48
2023-04-16T11:28:36.201Z,13.58
2023-04-16T11:29:36.231Z,13.70
2023-04-16T11:30:36.285Z,13.78
2023-04-16T11:31:36.327Z,13.78
2023-04-16T11:32:36.365Z,13.94
2023-04-16T11:33:36.344Z,14.08
2023-04-16T11:34:36.378Z,14.15
2023-04-16T11:35:36.414Z,14.16
2023-04-16T11:36:36.430Z,14.11
2023-04-16T11:37:36.460Z,14.27
2023-04-16T11:38:36.485Z,14.23
2023-04-16T11:39:36.545Z,14.27
2023-04-16T11:40:36.582Z,14.19
2023-04-16T11:41:36.571Z,14.08
2023-04-16T11:42:36.635Z,14.03
2023-04-16T11:43:36.629Z,13.86
2023-04-16T11:44:36.659Z,13.79
2023-04-16T11:45:36.685Z,13.62
2023-04-16T11:46:36.729Z,13.70
2023-04-16T11:47:36.775Z,13.75
2023-04-16T11:48:36.773Z,13.87
2023-04-16T11:49:36.800Z,13.86
2023-04-16T11:50:36.828Z,13.91
2023-04-16T11:51:36.862Z,14.11
2023-04-16T11:52:36.887Z,14.09
2023-04-16T11:53:36.929Z,14.12
2023-04-16T11:54:36.944Z,14.16
2023-04-16T11:55:36.994Z,14.34
2023-04-16T11:56:37.014Z,14.42
2023-04-16T11:57:37.029Z,14.64
2023-04-16T11:58:37.057Z,14.56
2023-04-16T11:59:37.109Z,14.60
2023-04-16T12:00:37.119Z,14.44
2023-04-16T12:01:37.152Z,14.56
2023-04-16T12:02:37.313Z,14.44
2023-04-16T12:03:37.526Z,14.42
2023-04-16T12:04:37.307Z,14.38
2023-04-16T12:05:37.269Z,14.41
2023-04-16T12:06:37.329Z,14.48
2023-04-16T12:07:37.321Z,14.30
2023-04-16T12:08:37.367Z,14.23
2023-04-16T12:09:39.571Z,14.21
2023-04-16T12:10:37.412Z,14.06
2023-04-16T12:11:37.450Z,14.13
2023-04-16T12:12:37.464Z,14.13
2023-04-16T12:13:37.509Z,14.24
2023-04-16T12:14:37.522Z,14.39
2023-04-16T12:15:37.551Z,14.52
2023-04-16T12:16:37.631Z,14.38
2023-04-16T12:17:37.638Z,14.39
2023-04-16T12:18:37.640Z,14.48
2023-04-16T12:19:37.677Z,14.44
2023-04-16T12:20:37.697Z,14.31
2023-04-16T12:21:37.733Z,14.38
2023-04-16T12:22:37.776Z,14.23
2023-04-16T12:23:37.788Z,14.23
2023-04-16T12:24:37.814Z,14.03
2023-04-16T12:25:37.841Z,14.03
2023-04-16T12:26:37.870Z,14.05
2023-04-16T12:27:37.919Z,14.06
2023-04-16T12:28:37.933Z,14.01
2023-04-16T12:29:37.959Z,14.02
2023-04-16T12:30:37.997Z,14.03
2023-04-16T12:31:38.023Z,14.03
2023-04-16T12:32:38.092Z,14.11
2023-04-16T12:33:38.089Z,14.05
2023-04-16T12:34:49.203Z,14.02
2023-04-16T12:35:38.137Z,14.19
2023-04-16T12:36:38.168Z,14.30
2023-04-16T12:37:38.187Z,14.52
2023-04-16T12:38:38.215Z,14.52
2023-04-16T12:39:38.267Z,14.53
2023-04-16T12:40:38.297Z,14.56
2023-04-16T12:41:38.303Z,14.57
2023-04-16T12:42:38.354Z,14.93
2023-04-16T12:43:38.381Z,14.98
2023-04-16T12:44:38.394Z,14.98
2023-04-16T12:45:38.423Z,14.87
2023-04-16T12:46:38.494Z,15.12
2023-04-16T12:47:38.559Z,15.02
2023-04-16T12:48:38.530Z,15.08
2023-04-16T12:49:38.544Z,15.10
2023-04-16T12:50:38.560Z,15.26
2023-04-16T12:51:38.594Z,15.35
2023-04-16T12:52:38.628Z,15.60
2023-04-16T12:53:38.652Z,15.68
2023-04-16T12:54:38.680Z,15.88
2023-04-16T12:55:38.749Z,15.95
2023-04-16T12:56:38.740Z,15.80
2023-04-16T12:57:38.771Z,15.65
2023-04-16T12:58:38.801Z,15.59
2023-04-16T12:59:38.848Z,15.44
2023-04-16T13:00:38.861Z,15.26
2023-04-16T13:01:38.901Z,15.26
2023-04-16T13:02:39.024Z,15.26
2023-04-16T13:03:39.127Z,15.10
2023-04-16T13:04:39.089Z,15.08
2023-04-16T13:05:39.004Z,15.18
2023-04-16T13:06:39.031Z,15.10
2023-04-16T13:07:39.081Z,15.02